sensor_id;sensor_type;location;lat;lon;timestamp;P1;durP1;ratioP1;P2;durP2;ratioP2
4049;SDS011;2039;50.894;6.888;2022-09-16T00:00:30;66.90;;;8.47;;
4049;SDS011;2039;50.894;6.888;2022-09-16T00:02:56;72.77;;;10.73;;
4049;SDS011;2039;50.894;6.888;2022-09-16T00:05:22;78.23;;;12.00;;
4049;SDS011;2039;50.894;6.888;2022-09-16T00:07:48;67.03;;;11.50;;
4049;SDS011;2039;50.894;6.888;2022-09-16T00:10:14;69.10;;;10.93;;
4049;SDS011;2039;50.894;6.888;2022-09-16T00:12:40;67.27;;;9.77;;
4049;SDS011;2039;50.894;6.888;2022-09-16T00:15:06;68.53;;;12.57;;
4049;SDS011;2039;50.894;6.888;2022-09-16T00:17:32;67.90;;;9.70;;
4049;SDS011;2039;50.894;6.888;2022-09-16T00:19:58;70.80;;;8.07;;
4049;SDS011;2039;50.894;6.888;2022-09-16T00:22:26;67.07;;;9.67;;
4049;SDS011;2039;50.894;6.888;2022-09-16T00:24:52;68.10;;;9.63;;
4049;SDS011;2039;50.894;6.888;2022-09-16T00:27:18;68.33;;;12.30;;
4049;SDS011;2039;50.894;6.888;2022-09-16T00:29:44;68.17;;;10.73;;
4049;SDS011;2039;50.894;6.888;2022-09-16T00:32:09;68.77;;;9.73;;
4049;SDS011;2039;50.894;6.888;2022-09-16T00:34:35;71.30;;;9.93;;
4049;SDS011;2039;50.894;6.888;2022-09-16T00:37:01;67.87;;;11.37;;
4049;SDS011;2039;50.894;6.888;2022-09-16T00:39:28;70.00;;;11.27;;
4049;SDS011;2039;50.894;6.888;2022-09-16T00:41:54;67.37;;;11.77;;
4049;SDS011;2039;50.894;6.888;2022-09-16T00:47:21;69.27;;;13.77;;
4049;SDS011;2039;50.894;6.888;2022-09-16T00:49:55;69.90;;;14.80;;
4049;SDS011;2039;50.894;6.888;2022-09-16T00:52:26;75.30;;;18.17;;
4049;SDS011;2039;50.894;6.888;2022-09-16T00:54:53;68.57;;;15.70;;
4049;SDS011;2039;50.894;6.888;2022-09-16T00:57:19;70.80;;;15.90;;
4049;SDS011;2039;50.894;6.888;2022-09-16T00:59:46;68.97;;;14.20;;
4049;SDS011;2039;50.894;6.888;2022-09-16T01:02:16;76.80;;;20.67;;
4049;SDS011;2039;50.894;6.888;2022-09-16T01:04:52;71.50;;;19.20;;
4049;SDS011;2039;50.894;6.888;2022-09-16T01:07:35;72.43;;;21.73;;
4049;SDS011;2039;50.894;6.888;2022-09-16T01:10:10;75.77;;;20.40;;
4049;SDS011;2039;50.894;6.888;2022-09-16T01:12:39;70.97;;;19.37;;
4049;SDS011;2039;50.894;6.888;2022-09-16T01:15:08;76.50;;;24.43;;
4049;SDS011;2039;50.894;6.888;2022-09-16T01:25:59;72.67;;;23.13;;
4049;SDS011;2039;50.894;6.888;2022-09-16T01:37:02;72.47;;;24.17;;
4049;SDS011;2039;50.894;6.888;2022-09-16T01:45:41;79.03;;;38.73;;
4049;SDS011;2039;50.894;6.888;2022-09-16T01:48:23;79.50;;;35.63;;
4049;SDS011;2039;50.894;6.888;2022-09-16T01:51:01;82.43;;;34.17;;
4049;SDS011;2039;50.894;6.888;2022-09-16T01:53:31;79.33;;;39.40;;
4049;SDS011;2039;50.894;6.888;2022-09-16T01:58:50;79.93;;;39.90;;
4049;SDS011;2039;50.894;6.888;2022-09-16T02:01:27;78.47;;;36.53;;
4049;SDS011;2039;50.894;6.888;2022-09-16T02:04:05;76.77;;;39.53;;
4049;SDS011;2039;50.894;6.888;2022-09-16T02:06:41;78.73;;;39.83;;
4049;SDS011;2039;50.894;6.888;2022-09-16T02:09:14;76.80;;;39.07;;
4049;SDS011;2039;50.894;6.888;2022-09-16T02:11:44;75.47;;;32.20;;
4049;SDS011;2039;50.894;6.888;2022-09-16T02:14:21;82.97;;;39.93;;
4049;SDS011;2039;50.894;6.888;2022-09-16T02:19:48;82.83;;;38.10;;
4049;SDS011;2039;50.894;6.888;2022-09-16T02:22:28;82.33;;;35.93;;
4049;SDS011;2039;50.894;6.888;2022-09-16T02:25:06;74.60;;;32.67;;
4049;SDS011;2039;50.894;6.888;2022-09-16T02:27:33;77.43;;;35.70;;
4049;SDS011;2039;50.894;6.888;2022-09-16T02:30:04;82.60;;;35.77;;
4049;SDS011;2039;50.894;6.888;2022-09-16T02:32:33;77.60;;;41.43;;
4049;SDS011;2039;50.894;6.888;2022-09-16T02:35:02;86.10;;;42.90;;
4049;SDS011;2039;50.894;6.888;2022-09-16T02:37:32;80.27;;;41.90;;
4049;SDS011;2039;50.894;6.888;2022-09-16T02:40:11;82.37;;;37.47;;
4049;SDS011;2039;50.894;6.888;2022-09-16T02:42:42;81.10;;;38.27;;
4049;SDS011;2039;50.894;6.888;2022-09-16T02:45:08;81.67;;;42.43;;
4049;SDS011;2039;50.894;6.888;2022-09-16T02:55:59;81.20;;;42.67;;
4049;SDS011;2039;50.894;6.888;2022-09-16T02:58:30;83.70;;;41.10;;
4049;SDS011;2039;50.894;6.888;2022-09-16T03:00:56;79.03;;;38.30;;
4049;SDS011;2039;50.894;6.888;2022-09-16T03:03:22;80.10;;;36.17;;
4049;SDS011;2039;50.894;6.888;2022-09-16T03:08:33;77.40;;;39.00;;
4049;SDS011;2039;50.894;6.888;2022-09-16T03:11:02;77.37;;;35.03;;
4049;SDS011;2039;50.894;6.888;2022-09-16T03:13:44;79.80;;;37.83;;
4049;SDS011;2039;50.894;6.888;2022-09-16T03:19:11;83.27;;;43.77;;
4049;SDS011;2039;50.894;6.888;2022-09-16T03:21:58;85.43;;;40.30;;
4049;SDS011;2039;50.894;6.888;2022-09-16T03:30:05;78.73;;;43.60;;
4049;SDS011;2039;50.894;6.888;2022-09-16T03:32:38;79.17;;;41.20;;
4049;SDS011;2039;50.894;6.888;2022-09-16T03:37:53;82.87;;;49.00;;
4049;SDS011;2039;50.894;6.888;2022-09-16T03:40:21;85.10;;;48.90;;
4049;SDS011;2039;50.894;6.888;2022-09-16T03:42:48;84.53;;;49.17;;
4049;SDS011;2039;50.894;6.888;2022-09-16T03:45:15;85.50;;;54.53;;
4049;SDS011;2039;50.894;6.888;2022-09-16T03:47:46;86.97;;;55.13;;
4049;SDS011;2039;50.894;6.888;2022-09-16T03:50:13;83.67;;;51.23;;
4049;SDS011;2039;50.894;6.888;2022-09-16T03:52:40;83.80;;;52.60;;
4049;SDS011;2039;50.894;6.888;2022-09-16T03:55:06;87.87;;;50.87;;
4049;SDS011;2039;50.894;6.888;2022-09-16T03:57:32;85.40;;;47.73;;
4049;SDS011;2039;50.894;6.888;2022-09-16T03:59:58;81.83;;;44.60;;
4049;SDS011;2039;50.894;6.888;2022-09-16T04:02:24;81.90;;;42.70;;
4049;SDS011;2039;50.894;6.888;2022-09-16T04:04:50;81.20;;;42.90;;
4049;SDS011;2039;50.894;6.888;2022-09-16T04:07:16;85.43;;;36.53;;
4049;SDS011;2039;50.894;6.888;2022-09-16T04:09:42;80.53;;;46.87;;
4049;SDS011;2039;50.894;6.888;2022-09-16T04:12:07;76.37;;;39.63;;
4049;SDS011;2039;50.894;6.888;2022-09-16T04:14:34;84.20;;;36.53;;
4049;SDS011;2039;50.894;6.888;2022-09-16T04:17:00;76.83;;;29.53;;
4049;SDS011;2039;50.894;6.888;2022-09-16T04:19:26;80.20;;;31.93;;
4049;SDS011;2039;50.894;6.888;2022-09-16T04:21:52;80.30;;;37.73;;
4049;SDS011;2039;50.894;6.888;2022-09-16T04:24:17;77.17;;;28.93;;
4049;SDS011;2039;50.894;6.888;2022-09-16T04:26:43;77.80;;;25.40;;
4049;SDS011;2039;50.894;6.888;2022-09-16T04:29:09;81.10;;;32.70;;
4049;SDS011;2039;50.894;6.888;2022-09-16T04:31:35;79.33;;;30.60;;
4049;SDS011;2039;50.894;6.888;2022-09-16T04:34:01;73.50;;;30.37;;
4049;SDS011;2039;50.894;6.888;2022-09-16T04:36:28;78.60;;;30.87;;
4049;SDS011;2039;50.894;6.888;2022-09-16T04:38:54;79.10;;;30.20;;
4049;SDS011;2039;50.894;6.888;2022-09-16T04:41:21;72.60;;;24.23;;
4049;SDS011;2039;50.894;6.888;2022-09-16T04:43:55;82.50;;;28.20;;
4049;SDS011;2039;50.894;6.888;2022-09-16T04:46:26;74.27;;;25.67;;
4049;SDS011;2039;50.894;6.888;2022-09-16T04:48:53;75.30;;;28.40;;
4049;SDS011;2039;50.894;6.888;2022-09-16T04:51:20;74.07;;;25.33;;
4049;SDS011;2039;50.894;6.888;2022-09-16T04:53:47;75.97;;;28.33;;
4049;SDS011;2039;50.894;6.888;2022-09-16T04:56:14;77.77;;;36.80;;
4049;SDS011;2039;50.894;6.888;2022-09-16T04:58:41;72.50;;;23.40;;
4049;SDS011;2039;50.894;6.888;2022-09-16T05:01:09;74.27;;;28.47;;
4049;SDS011;2039;50.894;6.888;2022-09-16T05:03:43;74.00;;;28.90;;
4049;SDS011;2039;50.894;6.888;2022-09-16T05:06:11;86.30;;;32.43;;
4049;SDS011;2039;50.894;6.888;2022-09-16T05:08:39;80.03;;;27.67;;
4049;SDS011;2039;50.894;6.888;2022-09-16T05:11:07;74.10;;;29.27;;
4049;SDS011;2039;50.894;6.888;2022-09-16T05:13:34;76.10;;;34.63;;
4049;SDS011;2039;50.894;6.888;2022-09-16T05:16:21;80.87;;;40.50;;
4049;SDS011;2039;50.894;6.888;2022-09-16T05:18:48;80.43;;;38.40;;
4049;SDS011;2039;50.894;6.888;2022-09-16T05:21:16;75.93;;;28.97;;
4049;SDS011;2039;50.894;6.888;2022-09-16T05:23:43;77.07;;;36.13;;
4049;SDS011;2039;50.894;6.888;2022-09-16T05:26:13;81.03;;;35.27;;
4049;SDS011;2039;50.894;6.888;2022-09-16T05:28:41;78.37;;;36.10;;
4049;SDS011;2039;50.894;6.888;2022-09-16T05:33:39;80.97;;;41.57;;
4049;SDS011;2039;50.894;6.888;2022-09-16T05:36:08;80.03;;;40.93;;
4049;SDS011;2039;50.894;6.888;2022-09-16T05:38:35;83.03;;;37.73;;
4049;SDS011;2039;50.894;6.888;2022-09-16T05:41:01;76.53;;;33.47;;
4049;SDS011;2039;50.894;6.888;2022-09-16T05:43:27;79.00;;;32.03;;
4049;SDS011;2039;50.894;6.888;2022-09-16T05:45:54;74.37;;;26.27;;
4049;SDS011;2039;50.894;6.888;2022-09-16T05:48:20;75.67;;;26.63;;
4049;SDS011;2039;50.894;6.888;2022-09-16T05:50:56;74.80;;;26.10;;
4049;SDS011;2039;50.894;6.888;2022-09-16T05:53:27;75.27;;;25.20;;
4049;SDS011;2039;50.894;6.888;2022-09-16T05:55:58;74.33;;;24.50;;
4049;SDS011;2039;50.894;6.888;2022-09-16T05:58:26;71.20;;;22.67;;
4049;SDS011;2039;50.894;6.888;2022-09-16T06:01:12;75.80;;;23.43;;
4049;SDS011;2039;50.894;6.888;2022-09-16T06:03:42;74.70;;;26.13;;
4049;SDS011;2039;50.894;6.888;2022-09-16T06:06:13;73.40;;;22.63;;
4049;SDS011;2039;50.894;6.888;2022-09-16T06:08:52;75.57;;;23.57;;
4049;SDS011;2039;50.894;6.888;2022-09-16T06:11:23;75.40;;;23.90;;
4049;SDS011;2039;50.894;6.888;2022-09-16T06:13:53;71.00;;;21.93;;
4049;SDS011;2039;50.894;6.888;2022-09-16T06:16:24;72.10;;;20.90;;
4049;SDS011;2039;50.894;6.888;2022-09-16T06:18:53;73.60;;;20.50;;
4049;SDS011;2039;50.894;6.888;2022-09-16T06:21:21;75.57;;;25.00;;
4049;SDS011;2039;50.894;6.888;2022-09-16T06:23:47;72.53;;;19.87;;
4049;SDS011;2039;50.894;6.888;2022-09-16T06:26:15;74.60;;;29.47;;
4049;SDS011;2039;50.894;6.888;2022-09-16T06:28:42;73.43;;;22.03;;
4049;SDS011;2039;50.894;6.888;2022-09-16T06:31:15;73.03;;;18.93;;
4049;SDS011;2039;50.894;6.888;2022-09-16T06:33:43;72.20;;;21.17;;
4049;SDS011;2039;50.894;6.888;2022-09-16T06:36:10;72.47;;;23.93;;
4049;SDS011;2039;50.894;6.888;2022-09-16T06:38:37;72.93;;;20.07;;
4049;SDS011;2039;50.894;6.888;2022-09-16T06:41:05;74.40;;;19.20;;
4049;SDS011;2039;50.894;6.888;2022-09-16T06:43:32;71.70;;;20.37;;
4049;SDS011;2039;50.894;6.888;2022-09-16T06:45:59;70.97;;;20.10;;
4049;SDS011;2039;50.894;6.888;2022-09-16T06:48:27;71.77;;;20.37;;
4049;SDS011;2039;50.894;6.888;2022-09-16T06:51:00;73.63;;;20.20;;
4049;SDS011;2039;50.894;6.888;2022-09-16T06:53:30;70.50;;;15.73;;
4049;SDS011;2039;50.894;6.888;2022-09-16T06:56:00;70.03;;;14.13;;
4049;SDS011;2039;50.894;6.888;2022-09-16T06:58:30;68.80;;;14.80;;
4049;SDS011;2039;50.894;6.888;2022-09-16T07:00:57;81.33;;;15.07;;
4049;SDS011;2039;50.894;6.888;2022-09-16T07:03:22;76.80;;;15.80;;
4049;SDS011;2039;50.894;6.888;2022-09-16T07:05:55;68.90;;;12.10;;
4049;SDS011;2039;50.894;6.888;2022-09-16T07:08:21;69.40;;;15.77;;
4049;SDS011;2039;50.894;6.888;2022-09-16T07:11:01;74.67;;;16.53;;
4049;SDS011;2039;50.894;6.888;2022-09-16T07:13:31;71.87;;;16.27;;
4049;SDS011;2039;50.894;6.888;2022-09-16T07:16:07;71.50;;;16.50;;
4049;SDS011;2039;50.894;6.888;2022-09-16T07:18:35;70.60;;;18.43;;
4049;SDS011;2039;50.894;6.888;2022-09-16T07:21:03;71.23;;;20.10;;
4049;SDS011;2039;50.894;6.888;2022-09-16T07:23:31;68.93;;;15.93;;
4049;SDS011;2039;50.894;6.888;2022-09-16T07:25:58;70.93;;;15.00;;
4049;SDS011;2039;50.894;6.888;2022-09-16T07:28:27;69.43;;;15.60;;
4049;SDS011;2039;50.894;6.888;2022-09-16T07:30:53;72.27;;;16.90;;
4049;SDS011;2039;50.894;6.888;2022-09-16T07:33:19;68.77;;;14.73;;
4049;SDS011;2039;50.894;6.888;2022-09-16T07:35:45;72.73;;;16.50;;
4049;SDS011;2039;50.894;6.888;2022-09-16T07:38:14;69.70;;;17.10;;
4049;SDS011;2039;50.894;6.888;2022-09-16T07:40:39;69.50;;;14.77;;
4049;SDS011;2039;50.894;6.888;2022-09-16T07:43:05;73.27;;;15.50;;
4049;SDS011;2039;50.894;6.888;2022-09-16T07:45:31;69.43;;;15.77;;
4049;SDS011;2039;50.894;6.888;2022-09-16T07:47:56;69.17;;;17.20;;
4049;SDS011;2039;50.894;6.888;2022-09-16T07:50:22;76.40;;;28.50;;
4049;SDS011;2039;50.894;6.888;2022-09-16T07:52:52;73.20;;;21.20;;
4049;SDS011;2039;50.894;6.888;2022-09-16T07:55:20;68.57;;;13.80;;
4049;SDS011;2039;50.894;6.888;2022-09-16T07:57:46;72.20;;;15.47;;
4049;SDS011;2039;50.894;6.888;2022-09-16T08:00:12;75.23;;;15.37;;
4049;SDS011;2039;50.894;6.888;2022-09-16T08:02:40;68.80;;;14.90;;
4049;SDS011;2039;50.894;6.888;2022-09-16T08:05:06;71.67;;;15.23;;
4049;SDS011;2039;50.894;6.888;2022-09-16T08:07:33;71.20;;;13.83;;
4049;SDS011;2039;50.894;6.888;2022-09-16T08:09:59;70.90;;;13.17;;
4049;SDS011;2039;50.894;6.888;2022-09-16T08:12:25;75.20;;;15.47;;
4049;SDS011;2039;50.894;6.888;2022-09-16T08:14:50;70.70;;;15.47;;
4049;SDS011;2039;50.894;6.888;2022-09-16T08:17:16;69.30;;;14.73;;
4049;SDS011;2039;50.894;6.888;2022-09-16T08:19:41;69.83;;;15.40;;
4049;SDS011;2039;50.894;6.888;2022-09-16T08:22:07;71.37;;;17.73;;
4049;SDS011;2039;50.894;6.888;2022-09-16T08:24:33;73.20;;;17.70;;
4049;SDS011;2039;50.894;6.888;2022-09-16T08:26:58;71.03;;;12.80;;
4049;SDS011;2039;50.894;6.888;2022-09-16T08:29:24;74.40;;;11.77;;
4049;SDS011;2039;50.894;6.888;2022-09-16T08:31:50;73.47;;;12.63;;
4049;SDS011;2039;50.894;6.888;2022-09-16T08:34:16;70.80;;;11.63;;
4049;SDS011;2039;50.894;6.888;2022-09-16T08:36:41;66.23;;;8.30;;
4049;SDS011;2039;50.894;6.888;2022-09-16T08:39:08;69.93;;;9.57;;
4049;SDS011;2039;50.894;6.888;2022-09-16T08:50:27;68.53;;;5.93;;
4049;SDS011;2039;50.894;6.888;2022-09-16T08:52:58;65.67;;;5.47;;
4049;SDS011;2039;50.894;6.888;2022-09-16T08:55:31;65.97;;;4.30;;
4049;SDS011;2039;50.894;6.888;2022-09-16T08:58:22;68.70;;;6.70;;
4049;SDS011;2039;50.894;6.888;2022-09-16T09:01:01;69.63;;;4.70;;
4049;SDS011;2039;50.894;6.888;2022-09-16T09:03:36;67.40;;;4.47;;
4049;SDS011;2039;50.894;6.888;2022-09-16T09:23:20;65.17;;;3.00;;
4049;SDS011;2039;50.894;6.888;2022-09-16T09:26:14;69.20;;;2.93;;
4049;SDS011;2039;50.894;6.888;2022-09-16T09:39:59;66.67;;;3.10;;
4049;SDS011;2039;50.894;6.888;2022-09-16T09:45:43;65.83;;;2.73;;
4049;SDS011;2039;50.894;6.888;2022-09-16T09:48:36;70.03;;;3.27;;
4049;SDS011;2039;50.894;6.888;2022-09-16T09:54:45;65.00;;;2.73;;
4049;SDS011;2039;50.894;6.888;2022-09-16T09:57:20;64.07;;;2.50;;
4049;SDS011;2039;50.894;6.888;2022-09-16T10:00:03;65.80;;;2.70;;
4049;SDS011;2039;50.894;6.888;2022-09-16T10:02:37;66.10;;;2.93;;
4049;SDS011;2039;50.894;6.888;2022-09-16T10:05:04;65.43;;;2.97;;
4049;SDS011;2039;50.894;6.888;2022-09-16T10:07:32;63.93;;;2.40;;
4049;SDS011;2039;50.894;6.888;2022-09-16T10:10:03;65.47;;;2.80;;
4049;SDS011;2039;50.894;6.888;2022-09-16T10:12:41;65.83;;;2.37;;
4049;SDS011;2039;50.894;6.888;2022-09-16T10:15:26;64.27;;;2.17;;
4049;SDS011;2039;50.894;6.888;2022-09-16T10:17:54;66.07;;;2.60;;
4049;SDS011;2039;50.894;6.888;2022-09-16T10:23:03;67.97;;;3.40;;
4049;SDS011;2039;50.894;6.888;2022-09-16T10:25:34;66.10;;;3.07;;
4049;SDS011;2039;50.894;6.888;2022-09-16T10:28:01;65.80;;;4.63;;
4049;SDS011;2039;50.894;6.888;2022-09-16T10:30:30;66.50;;;5.17;;
4049;SDS011;2039;50.894;6.888;2022-09-16T10:33:16;65.73;;;4.30;;
4049;SDS011;2039;50.894;6.888;2022-09-16T10:35:52;70.57;;;3.70;;
4049;SDS011;2039;50.894;6.888;2022-09-16T10:38:22;65.67;;;3.60;;
4049;SDS011;2039;50.894;6.888;2022-09-16T10:43:20;66.00;;;6.57;;
4049;SDS011;2039;50.894;6.888;2022-09-16T10:45:49;66.30;;;5.20;;
4049;SDS011;2039;50.894;6.888;2022-09-16T10:48:17;67.43;;;8.33;;
4049;SDS011;2039;50.894;6.888;2022-09-16T10:53:51;68.20;;;7.73;;
4049;SDS011;2039;50.894;6.888;2022-09-16T10:56:21;67.43;;;7.77;;
4049;SDS011;2039;50.894;6.888;2022-09-16T10:58:59;69.57;;;8.90;;
4049;SDS011;2039;50.894;6.888;2022-09-16T11:09:56;68.60;;;10.27;;
4049;SDS011;2039;50.894;6.888;2022-09-16T11:12:37;67.60;;;6.87;;
4049;SDS011;2039;50.894;6.888;2022-09-16T11:15:10;67.00;;;2.30;;
4049;SDS011;2039;50.894;6.888;2022-09-16T11:26:05;68.17;;;2.20;;
4049;SDS011;2039;50.894;6.888;2022-09-16T11:39:44;68.43;;;2.30;;
4049;SDS011;2039;50.894;6.888;2022-09-16T11:59:31;66.80;;;2.47;;
4049;SDS011;2039;50.894;6.888;2022-09-16T12:04:34;70.03;;;2.20;;
4049;SDS011;2039;50.894;6.888;2022-09-16T12:12:43;69.00;;;3.40;;
4049;SDS011;2039;50.894;6.888;2022-09-16T12:15:27;67.07;;;5.37;;
4049;SDS011;2039;50.894;6.888;2022-09-16T12:18:00;68.97;;;6.73;;
4049;SDS011;2039;50.894;6.888;2022-09-16T12:20:36;68.33;;;7.33;;
4049;SDS011;2039;50.894;6.888;2022-09-16T12:25:42;70.90;;;6.47;;
4049;SDS011;2039;50.894;6.888;2022-09-16T12:31:02;65.17;;;3.17;;
4049;SDS011;2039;50.894;6.888;2022-09-16T12:33:53;65.73;;;3.33;;
4049;SDS011;2039;50.894;6.888;2022-09-16T12:36:24;68.80;;;3.33;;
4049;SDS011;2039;50.894;6.888;2022-09-16T12:38:56;66.40;;;3.40;;
4049;SDS011;2039;50.894;6.888;2022-09-16T12:44:29;67.37;;;4.27;;
4049;SDS011;2039;50.894;6.888;2022-09-16T12:47:23;65.50;;;6.30;;
4049;SDS011;2039;50.894;6.888;2022-09-16T12:52:55;70.57;;;10.53;;
4049;SDS011;2039;50.894;6.888;2022-09-16T13:03:50;71.30;;;11.83;;
4049;SDS011;2039;50.894;6.888;2022-09-16T13:06:53;67.50;;;12.80;;
4049;SDS011;2039;50.894;6.888;2022-09-16T13:09:27;68.07;;;10.50;;
4049;SDS011;2039;50.894;6.888;2022-09-16T13:12:00;73.37;;;17.87;;
4049;SDS011;2039;50.894;6.888;2022-09-16T13:14:33;66.10;;;9.93;;
4049;SDS011;2039;50.894;6.888;2022-09-16T13:17:08;66.57;;;10.60;;
4049;SDS011;2039;50.894;6.888;2022-09-16T13:22:22;66.07;;;10.10;;
4049;SDS011;2039;50.894;6.888;2022-09-16T13:25:08;67.33;;;11.43;;
4049;SDS011;2039;50.894;6.888;2022-09-16T13:27:51;66.47;;;8.63;;
4049;SDS011;2039;50.894;6.888;2022-09-16T13:30:44;65.60;;;9.83;;
4049;SDS011;2039;50.894;6.888;2022-09-16T13:35:40;67.60;;;9.23;;
4049;SDS011;2039;50.894;6.888;2022-09-16T13:38:19;65.83;;;9.80;;
4049;SDS011;2039;50.894;6.888;2022-09-16T13:41:09;66.00;;;7.40;;
4049;SDS011;2039;50.894;6.888;2022-09-16T13:43:37;65.00;;;7.83;;
4049;SDS011;2039;50.894;6.888;2022-09-16T13:46:29;65.57;;;6.83;;
4049;SDS011;2039;50.894;6.888;2022-09-16T13:51:37;66.50;;;7.30;;
4049;SDS011;2039;50.894;6.888;2022-09-16T13:54:21;67.80;;;6.20;;
4049;SDS011;2039;50.894;6.888;2022-09-16T14:02:09;68.77;;;4.93;;
4049;SDS011;2039;50.894;6.888;2022-09-16T14:10:33;65.87;;;4.33;;
4049;SDS011;2039;50.894;6.888;2022-09-16T14:15:41;66.30;;;5.53;;
4049;SDS011;2039;50.894;6.888;2022-09-16T14:18:14;64.50;;;4.50;;
4049;SDS011;2039;50.894;6.888;2022-09-16T14:20:55;64.70;;;2.87;;
4049;SDS011;2039;50.894;6.888;2022-09-16T14:23:30;66.60;;;2.87;;
4049;SDS011;2039;50.894;6.888;2022-09-16T14:26:08;69.07;;;3.13;;
4049;SDS011;2039;50.894;6.888;2022-09-16T14:28:38;66.87;;;3.13;;
4049;SDS011;2039;50.894;6.888;2022-09-16T14:31:18;66.77;;;3.10;;
4049;SDS011;2039;50.894;6.888;2022-09-16T14:33:52;65.80;;;2.90;;
4049;SDS011;2039;50.894;6.888;2022-09-16T14:36:22;64.47;;;2.37;;
4049;SDS011;2039;50.894;6.888;2022-09-16T14:41:30;66.40;;;2.73;;
4049;SDS011;2039;50.894;6.888;2022-09-16T14:49:27;66.10;;;2.83;;
4049;SDS011;2039;50.894;6.888;2022-09-16T14:51:55;64.63;;;2.90;;
4049;SDS011;2039;50.894;6.888;2022-09-16T14:54:23;66.07;;;2.70;;
4049;SDS011;2039;50.894;6.888;2022-09-16T14:57:05;64.30;;;2.60;;
4049;SDS011;2039;50.894;6.888;2022-09-16T15:04:55;68.50;;;3.47;;
4049;SDS011;2039;50.894;6.888;2022-09-16T15:07:25;66.10;;;3.17;;
4049;SDS011;2039;50.894;6.888;2022-09-16T15:12:51;64.97;;;3.40;;
4049;SDS011;2039;50.894;6.888;2022-09-16T15:15:23;68.47;;;3.57;;
4049;SDS011;2039;50.894;6.888;2022-09-16T15:17:55;67.57;;;3.30;;
4049;SDS011;2039;50.894;6.888;2022-09-16T15:20:25;64.00;;;2.80;;
4049;SDS011;2039;50.894;6.888;2022-09-16T15:22:56;64.97;;;2.50;;
4049;SDS011;2039;50.894;6.888;2022-09-16T15:25:24;66.77;;;2.70;;
4049;SDS011;2039;50.894;6.888;2022-09-16T15:28:15;64.47;;;2.40;;
4049;SDS011;2039;50.894;6.888;2022-09-16T15:30:44;64.87;;;2.77;;
4049;SDS011;2039;50.894;6.888;2022-09-16T15:35:58;66.20;;;3.00;;
4049;SDS011;2039;50.894;6.888;2022-09-16T15:38:25;65.30;;;3.20;;
4049;SDS011;2039;50.894;6.888;2022-09-16T15:40:59;69.43;;;3.73;;
4049;SDS011;2039;50.894;6.888;2022-09-16T15:43:33;64.90;;;2.83;;
4049;SDS011;2039;50.894;6.888;2022-09-16T15:46:04;65.00;;;3.07;;
4049;SDS011;2039;50.894;6.888;2022-09-16T15:48:45;66.17;;;2.53;;
4049;SDS011;2039;50.894;6.888;2022-09-16T15:51:34;64.90;;;2.80;;
4049;SDS011;2039;50.894;6.888;2022-09-16T15:56:55;64.87;;;2.80;;
4049;SDS011;2039;50.894;6.888;2022-09-16T16:02:42;65.30;;;2.77;;
4049;SDS011;2039;50.894;6.888;2022-09-16T16:05:11;68.57;;;2.80;;
4049;SDS011;2039;50.894;6.888;2022-09-16T16:07:41;70.73;;;4.00;;
4049;SDS011;2039;50.894;6.888;2022-09-16T16:10:19;64.50;;;3.23;;
4049;SDS011;2039;50.894;6.888;2022-09-16T16:12:47;64.60;;;2.60;;
4049;SDS011;2039;50.894;6.888;2022-09-16T16:15:14;66.00;;;2.83;;
4049;SDS011;2039;50.894;6.888;2022-09-16T16:17:42;66.90;;;2.93;;
4049;SDS011;2039;50.894;6.888;2022-09-16T16:20:09;65.10;;;3.23;;
4049;SDS011;2039;50.894;6.888;2022-09-16T16:22:37;66.80;;;3.13;;
4049;SDS011;2039;50.894;6.888;2022-09-16T16:25:04;66.20;;;2.90;;
4049;SDS011;2039;50.894;6.888;2022-09-16T16:27:30;69.00;;;2.67;;
4049;SDS011;2039;50.894;6.888;2022-09-16T16:29:56;64.30;;;2.87;;
4049;SDS011;2039;50.894;6.888;2022-09-16T16:32:21;64.27;;;2.37;;
4049;SDS011;2039;50.894;6.888;2022-09-16T16:34:47;67.90;;;2.97;;
4049;SDS011;2039;50.894;6.888;2022-09-16T16:37:17;64.33;;;2.67;;
4049;SDS011;2039;50.894;6.888;2022-09-16T16:39:43;64.80;;;2.83;;
4049;SDS011;2039;50.894;6.888;2022-09-16T16:42:10;65.83;;;2.83;;
4049;SDS011;2039;50.894;6.888;2022-09-16T16:44:37;65.13;;;3.27;;
4049;SDS011;2039;50.894;6.888;2022-09-16T16:47:03;65.17;;;2.70;;
4049;SDS011;2039;50.894;6.888;2022-09-16T16:49:31;67.23;;;3.50;;
4049;SDS011;2039;50.894;6.888;2022-09-16T16:51:58;76.73;;;3.60;;
4049;SDS011;2039;50.894;6.888;2022-09-16T16:54:24;64.13;;;2.60;;
4049;SDS011;2039;50.894;6.888;2022-09-16T16:56:51;65.07;;;3.00;;
4049;SDS011;2039;50.894;6.888;2022-09-16T16:59:17;66.00;;;3.07;;
4049;SDS011;2039;50.894;6.888;2022-09-16T17:01:44;65.30;;;2.60;;
4049;SDS011;2039;50.894;6.888;2022-09-16T17:04:11;64.20;;;2.47;;
4049;SDS011;2039;50.894;6.888;2022-09-16T17:06:37;64.67;;;3.10;;
4049;SDS011;2039;50.894;6.888;2022-09-16T17:09:05;65.47;;;2.90;;
4049;SDS011;2039;50.894;6.888;2022-09-16T17:11:32;66.57;;;3.10;;
4049;SDS011;2039;50.894;6.888;2022-09-16T17:13:59;65.10;;;3.30;;
4049;SDS011;2039;50.894;6.888;2022-09-16T17:16:27;69.07;;;4.80;;
4049;SDS011;2039;50.894;6.888;2022-09-16T17:18:54;71.57;;;3.60;;
4049;SDS011;2039;50.894;6.888;2022-09-16T17:21:22;66.00;;;3.60;;
4049;SDS011;2039;50.894;6.888;2022-09-16T17:23:53;66.80;;;3.30;;
4049;SDS011;2039;50.894;6.888;2022-09-16T17:26:19;69.67;;;3.20;;
4049;SDS011;2039;50.894;6.888;2022-09-16T17:28:46;69.20;;;4.03;;
4049;SDS011;2039;50.894;6.888;2022-09-16T17:31:13;70.50;;;4.63;;
4049;SDS011;2039;50.894;6.888;2022-09-16T17:33:42;65.40;;;4.23;;
4049;SDS011;2039;50.894;6.888;2022-09-16T17:36:08;72.30;;;4.40;;
4049;SDS011;2039;50.894;6.888;2022-09-16T17:38:36;65.67;;;4.00;;
4049;SDS011;2039;50.894;6.888;2022-09-16T17:41:02;65.27;;;4.47;;
4049;SDS011;2039;50.894;6.888;2022-09-16T17:43:33;64.53;;;4.23;;
4049;SDS011;2039;50.894;6.888;2022-09-16T17:46:00;65.00;;;4.20;;
4049;SDS011;2039;50.894;6.888;2022-09-16T17:48:28;66.10;;;3.57;;
4049;SDS011;2039;50.894;6.888;2022-09-16T17:50:54;64.77;;;4.23;;
4049;SDS011;2039;50.894;6.888;2022-09-16T17:53:20;66.33;;;5.00;;
4049;SDS011;2039;50.894;6.888;2022-09-16T17:55:47;67.37;;;4.73;;
4049;SDS011;2039;50.894;6.888;2022-09-16T17:58:13;64.37;;;3.40;;
4049;SDS011;2039;50.894;6.888;2022-09-16T18:00:39;65.10;;;5.97;;
4049;SDS011;2039;50.894;6.888;2022-09-16T18:03:06;65.00;;;5.20;;
4049;SDS011;2039;50.894;6.888;2022-09-16T18:05:33;67.00;;;5.70;;
4049;SDS011;2039;50.894;6.888;2022-09-16T18:07:59;69.00;;;6.30;;
4049;SDS011;2039;50.894;6.888;2022-09-16T18:10:25;67.00;;;6.83;;
4049;SDS011;2039;50.894;6.888;2022-09-16T18:12:51;65.30;;;7.20;;
4049;SDS011;2039;50.894;6.888;2022-09-16T18:15:17;67.50;;;6.37;;
4049;SDS011;2039;50.894;6.888;2022-09-16T18:17:43;66.50;;;7.90;;
4049;SDS011;2039;50.894;6.888;2022-09-16T18:20:09;67.60;;;10.07;;
4049;SDS011;2039;50.894;6.888;2022-09-16T18:22:35;70.77;;;9.90;;
4049;SDS011;2039;50.894;6.888;2022-09-16T18:25:01;70.00;;;10.00;;
4049;SDS011;2039;50.894;6.888;2022-09-16T18:27:28;69.37;;;9.87;;
4049;SDS011;2039;50.894;6.888;2022-09-16T18:29:54;67.37;;;12.50;;
4049;SDS011;2039;50.894;6.888;2022-09-16T18:32:21;69.50;;;10.20;;
4049;SDS011;2039;50.894;6.888;2022-09-16T18:34:47;69.87;;;15.77;;
4049;SDS011;2039;50.894;6.888;2022-09-16T18:37:13;70.67;;;11.97;;
4049;SDS011;2039;50.894;6.888;2022-09-16T18:39:39;69.27;;;17.50;;
4049;SDS011;2039;50.894;6.888;2022-09-16T18:42:04;70.00;;;18.73;;
4049;SDS011;2039;50.894;6.888;2022-09-16T18:44:30;68.93;;;12.70;;
4049;SDS011;2039;50.894;6.888;2022-09-16T18:46:56;68.77;;;15.90;;
4049;SDS011;2039;50.894;6.888;2022-09-16T18:49:21;69.17;;;16.27;;
4049;SDS011;2039;50.894;6.888;2022-09-16T18:51:50;70.17;;;19.57;;
4049;SDS011;2039;50.894;6.888;2022-09-16T18:54:21;71.67;;;21.37;;
4049;SDS011;2039;50.894;6.888;2022-09-16T18:56:50;70.87;;;20.43;;
4049;SDS011;2039;50.894;6.888;2022-09-16T18:59:17;74.80;;;28.90;;